createdAt,value
2023-04-16T00:00:18.122Z,75.60
2023-04-16T00:02:44.226Z,75.60
2023-04-16T00:05:10.457Z,75.67
2023-04-16T00:07:36.397Z,75.76
2023-04-16T00:10:02.466Z,75.80
2023-04-16T00:12:28.370Z,75.77
2023-04-16T00:14:54.187Z,75.73
2023-04-16T00:17:20.228Z,75.90
2023-04-16T00:19:46.054Z,76.02
2023-04-16T00:22:11.915Z,75.80
2023-04-16T00:24:37.762Z,75.68
2023-04-16T00:27:03.676Z,75.89
2023-04-16T00:29:30.410Z,76.05
2023-04-16T00:31:56.295Z,76.11
2023-04-16T00:34:23.193Z,76.14
2023-04-16T00:36:49.038Z,76.26
2023-04-16T00:39:15.048Z,76.43
2023-04-16T00:41:43.215Z,76.49
2023-04-16T00:44:09.762Z,76.55
2023-04-16T00:46:37.507Z,76.48
2023-04-16T00:49:03.912Z,76.48
2023-04-16T00:51:31.260Z,76.69
2023-04-16T00:53:57.408Z,76.61
2023-04-16T00:56:24.243Z,76.59
2023-04-16T00:58:50.346Z,76.62
2023-04-16T01:01:16.320Z,76.63
2023-04-16T01:03:48.438Z,76.64
2023-04-16T01:06:17.084Z,76.53
2023-04-16T01:08:44.158Z,76.58
2023-04-16T01:11:11.712Z,76.68
2023-04-16T01:13:40.534Z,76.57
2023-04-16T01:16:08.658Z,76.53
2023-04-16T01:18:35.490Z,76.59
2023-04-16T01:21:01.429Z,76.63
2023-04-16T01:23:27.444Z,76.60
2023-04-16T01:25:53.394Z,76.69
2023-04-16T01:28:19.341Z,76.69
2023-04-16T01:30:45.224Z,76.59
2023-04-16T01:33:34.340Z,76.67
2023-04-16T01:36:00.347Z,76.67
2023-04-16T01:38:26.426Z,76.66
2023-04-16T01:40:59.370Z,76.89
2023-04-16T01:43:25.372Z,76.86
2023-04-16T01:46:11.080Z,76.77
2023-04-16T01:48:37.030Z,76.86
2023-04-16T01:51:04.243Z,77.00
2023-04-16T01:53:30.973Z,77.01
2023-04-16T01:55:56.886Z,76.97
2023-04-16T01:58:23.224Z,76.97
2023-04-16T02:00:49.335Z,76.93
2023-04-16T02:03:16.924Z,76.86
2023-04-16T02:05:42.916Z,76.77
2023-04-16T02:08:08.806Z,76.79
2023-04-16T02:10:34.854Z,76.75
2023-04-16T02:13:01.166Z,76.78
2023-04-16T02:15:27.038Z,76.88
2023-04-16T02:17:56.085Z,76.74
2023-04-16T02:20:22.977Z,76.54
2023-04-16T02:22:52.599Z,76.50
2023-04-16T02:25:19.958Z,76.56
2023-04-16T02:27:46.258Z,76.42
2023-04-16T02:30:39.693Z,76.32
2023-04-16T02:33:08.773Z,76.33
2023-04-16T02:35:35.881Z,76.32
2023-04-16T02:38:03.526Z,76.46
2023-04-16T02:40:30.193Z,76.61
2023-04-16T02:42:57.199Z,76.80
2023-04-16T02:45:24.585Z,77.07
2023-04-16T02:47:50.969Z,77.12
2023-04-16T02:50:17.473Z,77.10
2023-04-16T02:52:43.506Z,77.10
2023-04-16T02:55:10.475Z,77.10
2023-04-16T02:57:36.550Z,77.04
2023-04-16T03:00:04.444Z,77.00
2023-04-16T03:02:30.644Z,77.00
2023-04-16T03:04:56.665Z,76.94
2023-04-16T03:07:22.515Z,76.99
2023-04-16T03:09:48.602Z,77.10
2023-04-16T03:12:14.652Z,77.01
2023-04-16T03:14:40.580Z,76.98
2023-04-16T03:17:06.514Z,76.76
2023-04-16T03:19:32.482Z,76.54
2023-04-16T03:21:58.313Z,76.37
2023-04-16T03:24:24.227Z,76.31
2023-04-16T03:26:50.103Z,76.19
2023-04-16T03:29:16.745Z,76.13
2023-04-16T03:31:43.163Z,76.15
2023-04-16T03:34:09.172Z,76.30
2023-04-16T03:36:35.215Z,76.23
2023-04-16T03:39:01.075Z,76.22
2023-04-16T03:41:27.344Z,76.18
2023-04-16T03:43:53.375Z,76.30
2023-04-16T03:46:19.282Z,76.31
2023-04-16T03:48:45.337Z,76.36
2023-04-16T03:51:11.772Z,76.36
2023-04-16T03:53:38.187Z,76.41
2023-04-16T03:56:04.697Z,76.53
2023-04-16T03:58:30.527Z,76.46
2023-04-16T04:00:56.509Z,76.54
2023-04-16T04:03:22.754Z,76.56
2023-04-16T04:05:48.926Z,76.73
2023-04-16T04:08:19.316Z,76.84
2023-04-16T04:10:45.276Z,76.87
2023-04-16T04:13:11.580Z,76.77
2023-04-16T04:15:37.567Z,76.88
2023-04-16T04:18:04.370Z,77.05
2023-04-16T04:20:30.391Z,77.10
2023-04-16T04:22:57.050Z,77.11
2023-04-16T04:25:24.582Z,77.30
2023-04-16T04:27:50.628Z,77.42
2023-04-16T04:30:16.655Z,77.39
2023-04-16T04:32:43.220Z,77.49
2023-04-16T04:35:09.585Z,77.62
2023-04-16T04:37:35.578Z,77.75
2023-04-16T04:40:09.217Z,77.80
2023-04-16T04:42:38.134Z,77.90
2023-04-16T04:45:05.855Z,77.96
2023-04-16T04:47:32.904Z,78.05
2023-04-16T04:49:58.836Z,78.07
2023-04-16T04:52:25.213Z,78.20
2023-04-16T04:54:52.408Z,78.27
2023-04-16T04:57:19.079Z,78.31
2023-04-16T04:59:44.995Z,78.37
2023-04-16T05:02:11.811Z,78.33
2023-04-16T05:04:37.789Z,78.55
2023-04-16T05:07:03.784Z,78.61
2023-04-16T05:09:30.115Z,78.69
2023-04-16T05:11:56.889Z,78.73
2023-04-16T05:14:22.829Z,78.79
2023-04-16T05:16:48.735Z,78.71
2023-04-16T05:19:16.346Z,78.57
2023-04-16T05:21:42.252Z,78.74
2023-04-16T05:24:08.152Z,78.79
2023-04-16T05:26:34.094Z,78.78
2023-04-16T05:29:00.152Z,78.70
2023-04-16T05:31:26.041Z,78.72
2023-04-16T05:33:51.965Z,78.86
2023-04-16T05:36:17.842Z,78.57
2023-04-16T05:38:43.751Z,78.40
2023-04-16T05:41:10.156Z,78.40
2023-04-16T05:43:36.084Z,78.36
2023-04-16T05:46:02.036Z,78.32
2023-04-16T05:48:27.932Z,78.38
2023-04-16T05:50:53.757Z,78.36
2023-04-16T05:53:19.643Z,78.39
2023-04-16T05:55:46.281Z,78.36
2023-04-16T05:58:12.220Z,78.27
2023-04-16T06:00:38.615Z,78.40
2023-04-16T06:03:04.644Z,78.36
2023-04-16T06:05:30.798Z,78.18
2023-04-16T06:07:56.720Z,77.87
2023-04-16T06:10:22.644Z,77.83
2023-04-16T06:12:48.650Z,77.82
2023-04-16T06:15:14.662Z,77.42
2023-04-16T06:17:41.035Z,77.52
2023-04-16T06:20:07.669Z,77.50
2023-04-16T06:22:33.765Z,77.16
2023-04-16T06:25:00.166Z,76.88
2023-04-16T06:27:26.547Z,76.81
2023-04-16T06:29:52.378Z,76.70
2023-04-16T06:32:18.406Z,76.48
2023-04-16T06:34:44.396Z,76.25
2023-04-16T06:37:10.811Z,76.03
2023-04-16T06:39:36.793Z,75.49
2023-04-16T06:42:03.671Z,75.14
2023-04-16T06:44:29.592Z,75.04
2023-04-16T06:46:55.549Z,75.20
2023-04-16T06:49:21.444Z,74.93
2023-04-16T06:51:47.388Z,74.72
2023-04-16T06:54:13.392Z,75.08
2023-04-16T06:56:39.233Z,75.01
2023-04-16T06:59:05.630Z,75.01
2023-04-16T07:01:31.666Z,74.67
2023-04-16T07:03:58.022Z,74.48
2023-04-16T07:06:24.289Z,74.39
2023-04-16T07:08:53.058Z,74.26
2023-04-16T07:11:19.533Z,74.04
2023-04-16T07:13:45.834Z,74.40
2023-04-16T07:16:11.776Z,74.31
2023-04-16T07:18:37.803Z,74.17
2023-04-16T07:21:03.872Z,73.89
2023-04-16T07:23:30.772Z,73.89
2023-04-16T07:25:56.638Z,74.35
2023-04-16T07:28:24.573Z,74.06
2023-04-16T07:30:50.630Z,73.83
2023-04-16T07:33:16.600Z,73.84
2023-04-16T07:35:42.672Z,73.98
2023-04-16T07:38:08.536Z,73.85
2023-04-16T07:40:37.024Z,73.64
2023-04-16T07:43:03.023Z,74.32
2023-04-16T07:45:28.915Z,74.20
2023-04-16T07:47:55.233Z,73.94
2023-04-16T07:50:21.299Z,73.76
2023-04-16T07:52:47.301Z,73.79
2023-04-16T07:55:13.431Z,73.59
2023-04-16T07:57:40.655Z,73.92
2023-04-16T08:00:08.156Z,73.48
2023-04-16T08:02:40.958Z,73.52
2023-04-16T08:05:07.320Z,73.67
2023-04-16T08:07:34.586Z,73.34
2023-04-16T08:10:00.963Z,73.12
2023-04-16T08:12:26.940Z,73.02
2023-04-16T08:14:52.826Z,72.77
2023-04-16T08:17:18.772Z,72.72
2023-04-16T08:19:45.007Z,72.81
2023-04-16T08:22:12.389Z,73.12
2023-04-16T08:24:38.380Z,72.62
2023-04-16T08:27:15.561Z,72.35
2023-04-16T08:29:45.447Z,72.57
2023-04-16T08:32:11.431Z,71.88
2023-04-16T08:34:37.409Z,71.88
2023-04-16T08:37:03.322Z,71.87
2023-04-16T08:39:29.304Z,71.51
2023-04-16T08:41:58.313Z,71.05
2023-04-16T08:44:27.800Z,71.02
2023-04-16T08:46:57.514Z,70.62
2023-04-16T08:49:25.696Z,70.17
2023-04-16T08:51:54.336Z,69.95
2023-04-16T08:54:36.245Z,69.91
2023-04-16T08:57:06.368Z,69.92
2023-04-16T08:59:33.593Z,69.33
2023-04-16T09:02:00.245Z,69.06
2023-04-16T09:04:30.422Z,68.21
2023-04-16T09:06:58.464Z,67.37
2023-04-16T09:09:27.834Z,67.35
2023-04-16T09:11:54.000Z,67.36
2023-04-16T09:14:21.507Z,67.40
2023-04-16T09:16:51.370Z,66.99
2023-04-16T09:19:17.363Z,66.81
2023-04-16T09:21:46.849Z,66.93
2023-04-16T09:24:13.663Z,66.68
2023-04-16T09:26:42.787Z,66.43
2023-04-16T09:29:09.184Z,66.05
2023-04-16T09:31:35.626Z,66.01
2023-04-16T09:34:08.485Z,66.15
2023-04-16T09:36:35.900Z,65.93
2023-04-16T09:39:03.209Z,65.14
2023-04-16T09:41:35.109Z,64.83
2023-04-16T09:44:03.872Z,64.39
2023-04-16T09:46:41.045Z,64.16
2023-04-16T09:49:14.794Z,64.24
2023-04-16T09:51:43.089Z,64.41
2023-04-16T09:54:09.707Z,64.82
2023-04-16T09:56:41.970Z,65.31
2023-04-16T09:59:19.551Z,64.84
2023-04-16T10:02:13.968Z,64.56
2023-04-16T10:04:52.347Z,63.76
2023-04-16T10:07:18.920Z,63.76
2023-04-16T10:09:47.826Z,63.80
2023-04-16T10:12:14.867Z,63.78
2023-04-16T10:14:42.115Z,63.99
2023-04-16T10:17:09.288Z,64.19
2023-04-16T10:19:35.879Z,64.26
2023-04-16T10:22:02.845Z,63.42
2023-04-16T10:24:31.368Z,63.62
2023-04-16T10:26:59.148Z,63.33
2023-04-16T10:29:27.598Z,63.46
2023-04-16T10:31:57.500Z,63.32
2023-04-16T10:34:25.212Z,63.44
2023-04-16T10:36:53.262Z,63.12
2023-04-16T10:39:25.117Z,62.84
2023-04-16T10:42:08.330Z,62.81
2023-04-16T10:44:34.766Z,62.52
2023-04-16T10:47:00.645Z,62.28
2023-04-16T10:49:26.676Z,62.01
2023-04-16T10:51:58.221Z,61.99
2023-04-16T10:54:29.935Z,61.84
2023-04-16T10:56:59.109Z,61.44
2023-04-16T10:59:32.475Z,61.25
2023-04-16T11:02:01.177Z,60.99
2023-04-16T11:04:33.653Z,60.87
2023-04-16T11:07:15.608Z,60.85
2023-04-16T11:09:58.843Z,60.91
2023-04-16T11:12:36.779Z,60.08
2023-04-16T11:15:05.631Z,60.32
2023-04-16T11:17:46.720Z,59.86
2023-04-16T11:20:21.132Z,60.28
2023-04-16T11:22:49.105Z,59.94
2023-04-16T11:25:31.005Z,59.51
2023-04-16T11:27:58.313Z,59.18
2023-04-16T11:30:36.603Z,59.26
2023-04-16T11:33:08.905Z,59.16
2023-04-16T11:35:35.273Z,58.96
2023-04-16T11:38:01.613Z,59.18
2023-04-16T11:40:30.989Z,59.65
2023-04-16T11:43:12.652Z,59.78
2023-04-16T11:45:38.610Z,60.01
2023-04-16T11:48:04.762Z,60.06
2023-04-16T11:50:30.675Z,60.04
2023-04-16T11:53:03.597Z,60.08
2023-04-16T11:55:30.697Z,60.18
2023-04-16T11:57:56.682Z,60.09
2023-04-16T12:00:24.584Z,60.14
2023-04-16T12:02:54.171Z,60.09
2023-04-16T12:05:35.293Z,60.29
2023-04-16T12:08:10.588Z,60.25
2023-04-16T12:10:53.793Z,60.29
2023-04-16T12:13:19.907Z,60.18
2023-04-16T12:15:51.943Z,60.27
2023-04-16T12:18:20.777Z,60.20
2023-04-16T12:20:46.896Z,60.40
2023-04-16T12:23:42.018Z,60.68
2023-04-16T12:26:10.260Z,61.09
2023-04-16T12:28:37.849Z,61.30
2023-04-16T12:31:05.101Z,61.49
2023-04-16T12:33:31.578Z,61.65
2023-04-16T12:35:57.775Z,61.90
2023-04-16T12:38:24.894Z,62.23
2023-04-16T12:40:51.443Z,62.30
2023-04-16T12:43:19.031Z,62.14
2023-04-16T12:45:44.982Z,62.09
2023-04-16T12:48:10.893Z,62.03
2023-04-16T12:50:38.911Z,62.33
2023-04-16T12:53:04.906Z,62.27
2023-04-16T12:55:31.033Z,62.35
2023-04-16T12:57:57.058Z,62.21
2023-04-16T13:00:23.152Z,62.40
2023-04-16T13:02:49.091Z,62.55
2023-04-16T13:05:16.721Z,62.44
2023-04-16T13:07:42.787Z,62.61
2023-04-16T13:10:09.374Z,62.80
2023-04-16T13:12:35.414Z,63.17
2023-04-16T13:15:01.380Z,63.46
2023-04-16T13:17:27.707Z,63.74
2023-04-16T13:19:53.938Z,64.07
2023-04-16T13:22:20.118Z,64.32
2023-04-16T13:24:46.601Z,64.34
2023-04-16T13:27:15.398Z,64.40
2023-04-16T13:29:41.269Z,64.47
2023-04-16T13:32:07.231Z,64.74
2023-04-16T13:34:33.100Z,64.81
2023-04-16T13:36:59.000Z,64.76
2023-04-16T13:39:24.921Z,64.83
2023-04-16T13:41:50.795Z,64.81
2023-04-16T13:44:16.802Z,64.56
2023-04-16T13:46:46.935Z,64.64
2023-04-16T13:49:13.959Z,64.62
2023-04-16T13:51:43.534Z,64.60
2023-04-16T13:54:09.600Z,64.60
2023-04-16T13:56:35.610Z,64.56
2023-04-16T13:59:02.005Z,64.17
2023-04-16T14:01:28.081Z,64.34
2023-04-16T14:03:54.046Z,64.25
2023-04-16T14:06:20.563Z,64.30
2023-04-16T14:08:46.482Z,64.32
2023-04-16T14:11:12.403Z,64.13
2023-04-16T14:13:38.282Z,64.08
2023-04-16T14:16:04.720Z,64.26
2023-04-16T14:18:30.579Z,64.32
2023-04-16T14:20:58.079Z,64.30
2023-04-16T14:23:24.029Z,64.31
2023-04-16T14:25:49.933Z,64.32
2023-04-16T14:28:15.966Z,64.37
2023-04-16T14:30:41.866Z,64.24
2023-04-16T14:33:07.761Z,64.03
2023-04-16T14:35:33.752Z,64.12
2023-04-16T14:38:00.641Z,64.29
2023-04-16T14:40:26.582Z,64.42
2023-04-16T14:42:52.574Z,64.56
2023-04-16T14:45:18.484Z,64.53
2023-04-16T14:47:47.456Z,64.86
2023-04-16T14:50:14.900Z,65.06
2023-04-16T14:52:40.981Z,65.08
2023-04-16T14:55:07.386Z,65.03
2023-04-16T14:57:33.366Z,64.92
2023-04-16T14:59:59.224Z,64.97
2023-04-16T15:02:25.479Z,65.08
2023-04-16T15:04:51.619Z,65.18
2023-04-16T15:07:17.603Z,65.26
2023-04-16T15:09:43.502Z,65.41
2023-04-16T15:12:09.784Z,65.40
2023-04-16T15:14:35.719Z,65.56
2023-04-16T15:17:01.649Z,65.62
2023-04-16T15:19:27.657Z,65.85
2023-04-16T15:21:55.141Z,65.90
2023-04-16T15:24:21.018Z,65.94
2023-04-16T15:26:46.938Z,65.87
2023-04-16T15:29:12.840Z,65.69
2023-04-16T15:31:38.835Z,65.80
2023-04-16T15:34:04.752Z,65.83
2023-04-16T15:36:31.041Z,66.12
2023-04-16T15:38:56.943Z,66.28
2023-04-16T15:41:23.808Z,66.28
2023-04-16T15:43:50.751Z,66.10
2023-04-16T15:46:16.749Z,66.01
2023-04-16T15:48:42.646Z,65.99
2023-04-16T15:51:08.988Z,65.84
2023-04-16T15:53:34.982Z,65.87
2023-04-16T15:56:01.025Z,66.13
2023-04-16T15:58:27.045Z,66.16
2023-04-16T16:00:53.052Z,66.09
2023-04-16T16:03:20.956Z,66.20
2023-04-16T16:05:47.497Z,66.03
2023-04-16T16:08:14.792Z,66.00
2023-04-16T16:10:41.710Z,66.23
2023-04-16T16:13:12.273Z,66.28
2023-04-16T16:15:41.783Z,66.13
2023-04-16T16:18:07.767Z,66.22
2023-04-16T16:20:34.341Z,66.34
2023-04-16T16:23:00.833Z,66.55
2023-04-16T16:25:26.835Z,66.84
2023-04-16T16:27:52.978Z,67.09
2023-04-16T16:30:19.091Z,67.10
2023-04-16T16:32:45.129Z,67.19
2023-04-16T16:35:12.622Z,67.49
2023-04-16T16:37:38.679Z,67.58
2023-04-16T16:40:05.489Z,67.71
2023-04-16T16:42:32.062Z,67.85
2023-04-16T16:44:58.058Z,67.98
2023-04-16T16:47:24.239Z,68.02
2023-04-16T16:49:50.817Z,68.23
2023-04-16T16:52:16.753Z,68.32
2023-04-16T16:54:42.661Z,68.40
2023-04-16T16:57:08.571Z,68.43
2023-04-16T16:59:34.493Z,68.56
2023-04-16T17:02:00.513Z,68.61
2023-04-16T17:04:26.564Z,68.58
2023-04-16T17:06:52.521Z,68.64
2023-04-16T17:09:18.510Z,68.60
2023-04-16T17:11:44.538Z,68.74
2023-04-16T17:14:10.471Z,68.91
2023-04-16T17:16:36.382Z,69.16
2023-04-16T17:19:02.395Z,69.24
2023-04-16T17:21:28.514Z,69.34
2023-04-16T17:23:54.392Z,69.58
2023-04-16T17:26:20.292Z,69.71
2023-04-16T17:28:46.218Z,69.94
2023-04-16T17:31:12.130Z,70.08
2023-04-16T17:33:38.025Z,70.13
2023-04-16T17:36:04.803Z,70.18
2023-04-16T17:38:30.781Z,70.23
2023-04-16T17:40:57.285Z,70.34
2023-04-16T17:43:23.498Z,70.48
2023-04-16T17:45:49.671Z,70.55
2023-04-16T17:48:15.628Z,70.56
2023-04-16T17:50:41.672Z,70.76
2023-04-16T17:53:07.595Z,71.02
2023-04-16T17:55:33.765Z,71.15
2023-04-16T17:58:00.094Z,71.37
2023-04-16T18:00:26.006Z,71.50
2023-04-16T18:02:51.959Z,71.60
2023-04-16T18:05:19.119Z,71.61
2023-04-16T18:07:46.681Z,71.66
2023-04-16T18:10:12.674Z,71.78
2023-04-16T18:12:38.618Z,71.92
2023-04-16T18:15:06.454Z,71.94
2023-04-16T18:17:32.476Z,71.97
2023-04-16T18:19:58.366Z,71.99
2023-04-16T18:22:26.340Z,72.00
2023-04-16T18:24:54.365Z,72.03
2023-04-16T18:27:21.423Z,72.10
2023-04-16T18:29:49.373Z,72.08
2023-04-16T18:32:15.633Z,72.10
2023-04-16T18:34:41.710Z,72.13
2023-04-16T18:37:07.754Z,72.20
2023-04-16T18:39:33.793Z,72.07
2023-04-16T18:42:00.747Z,72.00
2023-04-16T18:44:26.685Z,72.00
2023-04-16T18:46:52.696Z,72.01
2023-04-16T18:49:18.676Z,72.07
2023-04-16T18:51:44.712Z,72.05
2023-04-16T18:54:10.592Z,72.04
2023-04-16T18:56:36.508Z,72.13
2023-04-16T18:59:02.449Z,72.09
2023-04-16T19:01:28.404Z,72.10
2023-04-16T19:03:54.766Z,72.10
2023-04-16T19:06:20.718Z,72.10
2023-04-16T19:08:46.672Z,72.10
2023-04-16T19:11:12.518Z,72.21
2023-04-16T19:13:38.575Z,72.20
2023-04-16T19:16:10.505Z,72.25
2023-04-16T19:18:38.129Z,72.24
2023-04-16T19:21:04.944Z,72.20
2023-04-16T19:23:30.792Z,72.27
2023-04-16T19:25:57.228Z,72.21
2023-04-16T19:28:26.621Z,72.31
2023-04-16T19:30:53.685Z,72.39
2023-04-16T19:33:19.770Z,72.48
2023-04-16T19:35:46.625Z,72.60
2023-04-16T19:38:12.561Z,72.71
2023-04-16T19:40:39.333Z,72.77
2023-04-16T19:43:05.869Z,72.86
2023-04-16T19:45:31.900Z,72.96
2023-04-16T19:47:58.455Z,73.02
2023-04-16T19:50:24.448Z,73.16
2023-04-16T19:52:51.146Z,73.29
2023-04-16T19:55:18.633Z,73.30
2023-04-16T19:57:47.149Z,73.37
2023-04-16T20:00:13.788Z,73.40
2023-04-16T20:02:39.939Z,73.43
2023-04-16T20:05:06.813Z,73.58
2023-04-16T20:07:32.912Z,73.70
2023-04-16T20:09:58.775Z,73.77
2023-04-16T20:12:24.650Z,73.80
2023-04-16T20:14:50.702Z,73.94
2023-04-16T20:17:19.601Z,74.03
2023-04-16T20:19:48.753Z,74.15
2023-04-16T20:22:17.578Z,74.24
2023-04-16T20:24:47.319Z,74.35
2023-04-16T20:27:14.249Z,74.43
2023-04-16T20:29:40.778Z,74.51
2023-04-16T20:32:06.673Z,74.66
2023-04-16T20:34:32.640Z,74.79
2023-04-16T20:36:58.484Z,74.90
2023-04-16T20:39:25.806Z,75.04
2023-04-16T20:41:55.934Z,75.10
2023-04-16T20:44:25.710Z,75.19
2023-04-16T20:46:56.435Z,75.23
2023-04-16T20:49:25.066Z,75.36
2023-04-16T20:51:51.197Z,75.42
2023-04-16T20:54:17.131Z,75.41
2023-04-16T20:56:44.044Z,75.41
2023-04-16T20:59:12.813Z,75.46
2023-04-16T21:01:38.986Z,75.50
2023-04-16T21:04:05.914Z,75.51
2023-04-16T21:06:33.284Z,75.62
2023-04-16T21:08:59.114Z,75.70
2023-04-16T21:11:25.575Z,75.79
2023-04-16T21:13:51.415Z,75.90
2023-04-16T21:16:17.903Z,75.95
2023-04-16T21:18:44.413Z,76.05
2023-04-16T21:21:10.330Z,76.04
2023-04-16T21:23:36.218Z,76.09
2023-04-16T21:26:02.156Z,76.09
2023-04-16T21:28:28.784Z,76.06
2023-04-16T21:30:54.707Z,76.12
2023-04-16T21:33:20.633Z,76.19
2023-04-16T21:35:53.729Z,76.26
2023-04-16T21:38:20.867Z,76.16
2023-04-16T21:40:52.890Z,76.08
2023-04-16T21:43:19.602Z,76.09
2023-04-16T21:45:45.770Z,76.06
2023-04-16T21:48:11.778Z,76.09
2023-04-16T21:50:38.163Z,76.03
2023-04-16T21:53:05.768Z,76.00
2023-04-16T21:55:35.526Z,76.00
2023-04-16T21:58:03.033Z,76.00
2023-04-16T22:00:29.102Z,76.04
2023-04-16T22:02:55.275Z,76.10
2023-04-16T22:05:23.433Z,76.16
2023-04-16T22:07:50.396Z,76.20
2023-04-16T22:10:16.374Z,76.31
2023-04-16T22:12:46.076Z,76.31
2023-04-16T22:15:12.945Z,76.30
2023-04-16T22:17:39.834Z,76.28
2023-04-16T22:20:13.595Z,76.21
2023-04-16T22:22:41.118Z,76.29
2023-04-16T22:25:07.719Z,76.38
2023-04-16T22:27:33.737Z,76.40
2023-04-16T22:29:59.676Z,76.40
2023-04-16T22:32:25.778Z,76.40
2023-04-16T22:34:51.777Z,76.39
2023-04-16T22:37:17.780Z,76.41
2023-04-16T22:39:43.710Z,76.46
2023-04-16T22:42:09.701Z,76.44
2023-04-16T22:44:36.182Z,76.36
2023-04-16T22:47:02.158Z,76.37
2023-04-16T22:49:34.345Z,76.44
2023-04-16T22:52:00.493Z,76.35
2023-04-16T22:54:31.177Z,76.32
2023-04-16T22:56:57.807Z,76.20
2023-04-16T22:59:25.256Z,76.20
2023-04-16T23:01:52.032Z,76.28
2023-04-16T23:04:18.264Z,76.31
2023-04-16T23:06:44.160Z,76.26
2023-04-16T23:09:10.440Z,76.20
2023-04-16T23:11:36.669Z,76.19
2023-04-16T23:14:04.440Z,76.16
2023-04-16T23:16:30.497Z,76.10
2023-04-16T23:18:56.414Z,76.20
2023-04-16T23:21:22.407Z,76.25
2023-04-16T23:23:48.424Z,76.27
2023-04-16T23:26:14.768Z,76.26
2023-04-16T23:28:40.725Z,76.34
2023-04-16T23:31:07.355Z,76.32
2023-04-16T23:33:33.600Z,76.30
2023-04-16T23:35:59.647Z,76.45
2023-04-16T23:38:25.661Z,76.59
2023-04-16T23:40:51.548Z,76.77
2023-04-16T23:43:17.392Z,76.87
2023-04-16T23:45:43.293Z,76.90
2023-04-16T23:48:09.394Z,76.83
2023-04-16T23:50:35.317Z,76.79
2023-04-16T23:53:01.255Z,76.80
2023-04-16T23:55:27.162Z,76.80
2023-04-16T23:57:53.044Z,76.72
